Brockway Township, Michigan
Current Conditions -  °F | °C
As of 2:57 AM on Saturday 20 Dec 2014 (Local Time) from KPHN Reporting Station
Overcast Overcast  
Wind Chill: 19°   Ceiling: 2700
Heat Index: 19°   Visibility: 10mi
Dew Point: 19°   Wind: 0mph
Humidity: 100%   Direction: NA
Pressure: 30.29"   Gusts: NA
Location:  43.127°N, 82.8328°W
Report Text: KPHN 200757Z AUTO 00000KT 10SM OVC027 M07/M07 A3029 RMK AO2
Loading
Personal Weather Stations






























Interactive Weather Map New forecast layout! Learn more

10-Day Weather Forecast

Advertisements
Track Severe Weather on mobile